Time;durP1;ratioP1;P1;durP2;ratioP2;P2;SDS_P1;SDS_P2;PMS_P1;PMS_P2;Temp;Humidity;BMP_temperature;BMP_pressure;BME280_temperature;BME280_humidity;BME280_pressure;Samples;Min_cycle;Max_cycle;Signal;HPM_P1;HPM_P2
2022/11/29 04:02:44;;;;;;;330.95;29.13;;;7.50;99.90;;;;;;6205306;23;20024;-87
2022/11/29 04:05:32;;;;;;;445.48;30.77;;;7.50;99.90;;;;;;6164767;23;20115;-85
2022/11/29 04:08:06;;;;;;;450.00;34.28;;;7.40;99.90;;;;;;6189985;23;20024;-86
2022/11/29 04:10:44;;;;;;;459.87;31.40;;;7.40;99.90;;;;;;6189892;23;20020;-86
2022/11/29 04:13:41;;;;;;;507.85;37.30;;;7.40;99.90;;;;;;6164605;23;20713;-86
2022/11/29 04:16:30;;;;;;;428.55;34.28;;;7.40;99.90;;;;;;6189779;23;20017;-86
2022/11/29 04:19:26;;;;;;;530.30;36.90;;;7.40;99.90;;;;;;6135543;23;20016;-86
2022/11/29 04:22:13;;;;;;;447.20;30.90;;;7.40;99.90;;;;;;6164538;23;20024;-85
2022/11/29 04:25:09;;;;;;;407.55;31.10;;;7.40;99.90;;;;;;6189342;23;20024;-86
2022/11/29 04:28:05;;;;;;;549.50;35.85;;;7.40;99.90;;;;;;6189401;23;20012;-86
2022/11/29 04:30:58;;;;;;;496.73;33.57;;;7.40;99.90;;;;;;6165042;23;20021;-86
2022/11/29 04:33:45;;;;;;;390.27;32.15;;;7.40;99.90;;;;;;6189155;23;20009;-86
2022/11/29 04:37:02;;;;;;;477.42;34.30;;;7.30;99.90;;;;;;6189096;23;20098;-86
2022/11/29 04:39:37;;;;;;;435.38;29.50;;;7.40;99.90;;;;;;6216175;23;20091;-86
2022/11/29 04:42:36;;;;;;;472.70;31.67;;;7.40;99.90;;;;;;6188989;23;20398;-86
2022/11/29 04:45:50;;;;;;;456.17;32.78;;;7.40;99.90;;;;;;6189666;23;20017;-85
2022/11/29 04:48:50;;;;;;;403.80;29.23;;;7.30;99.90;;;;;;6166343;23;20395;-85
2022/11/29 04:51:49;;;;;;;441.92;28.58;;;7.30;99.90;;;;;;6217654;23;20012;-86
2022/11/29 04:54:26;;;;;;;404.75;27.90;;;7.30;99.90;;;;;;6190963;23;20020;-88
2022/11/29 04:57:16;;;;;;;313.60;25.42;;;7.20;99.90;;;;;;6166159;23;20020;-86
2022/11/29 05:00:05;;;;;;;;;;;;;;;;;;;;;
2022/11/29 05:02:41;;;;;;;365.20;24.98;;;7.10;99.90;;;;;;6190436;23;20044;-85
2022/11/29 05:05:29;;;;;;;494.02;31.50;;;7.10;99.90;;;;;;6218105;23;20021;-85
2022/11/29 05:08:13;;;;;;;357.05;26.13;;;7.10;99.90;;;;;;6191342;23;20090;-86
2022/11/29 05:11:09;;;;;;;328.88;23.27;;;7.00;99.90;;;;;;6166109;23;20016;-87
2022/11/29 05:13:44;;;;;;;;;;;7.00;99.90;;;;;;6218572;23;20079;-86
2022/11/29 05:16:15;;;;;;;387.25;26.83;;;7.00;99.90;;;;;;6191173;23;19912;-86
2022/11/29 05:18:52;;;;;;;428.42;31.65;;;7.10;99.90;;;;;;6190999;23;20017;-86
2022/11/29 05:21:46;;;;;;;346.98;25.60;;;7.10;99.90;;;;;;6191595;23;20015;-87
2022/11/29 05:24:44;;;;;;;294.13;22.88;;;7.10;99.90;;;;;;6191383;23;20087;-86
2022/11/29 05:27:35;;;;;;;367.60;27.50;;;7.00;99.90;;;;;;6166141;23;20066;-85
2022/11/29 05:30:11;;;;;;;420.50;28.23;;;7.00;99.90;;;;;;6218039;23;20024;-85
2022/11/29 05:32:40;;;;;;;450.40;27.17;;;7.00;99.90;;;;;;6191733;23;20017;-86
2022/11/29 05:35:24;;;;;;;429.60;27.65;;;7.00;99.90;;;;;;6166423;23;20020;-85
2022/11/29 05:38:03;;;;;;;317.55;24.13;;;6.90;99.90;;;;;;6166783;23;20370;-85
2022/11/29 05:40:35;;;;;;;332.05;24.50;;;6.90;99.90;;;;;;6167223;23;20017;-87
2022/11/29 05:43:19;;;;;;;360.35;27.15;;;6.90;99.90;;;;;;6191008;23;20016;-87
2022/11/29 05:46:03;;;;;;;382.52;26.30;;;6.90;99.90;;;;;;6166315;23;20021;-87
2022/11/29 05:48:52;;;;;;;264.15;22.00;;;6.80;99.90;;;;;;6190923;23;20017;-87
2022/11/29 05:51:26;;;;;;;343.80;25.35;;;6.80;99.90;;;;;;6070855;23;20410;-86
2022/11/29 05:54:18;;;;;;;325.70;26.20;;;6.80;99.90;;;;;;6070852;23;20529;-87
2022/11/29 05:57:13;;;;;;;339.60;25.08;;;6.80;99.90;;;;;;6046334;23;20093;-87
2022/11/29 05:59:41;;;;;;;379.67;29.05;;;6.70;99.90;;;;;;6070990;23;20018;-87
2022/11/29 06:02:29;;;;;;;301.85;24.88;;;6.70;99.90;;;;;;6070647;23;20065;-88
2022/11/29 06:05:15;;;;;;;305.98;25.60;;;6.70;99.90;;;;;;6071429;23;20424;-88
2022/11/29 06:07:50;;;;;;;309.67;27.98;;;6.70;99.90;;;;;;6047803;23;20054;-88
2022/11/29 06:10:23;;;;;;;348.27;30.33;;;6.70;99.90;;;;;;6047060;23;20117;-87
2022/11/29 06:13:02;;;;;;;357.13;27.75;;;6.70;99.90;;;;;;6070756;23;20018;-87
2022/11/29 06:15:56;;;;;;;338.65;27.65;;;6.70;99.90;;;;;;6131523;23;20074;-87
2022/11/29 06:18:45;;;;;;;364.02;31.42;;;6.70;99.90;;;;;;6215526;23;20013;-88
2022/11/29 06:21:37;;;;;;;328.10;27.30;;;6.60;99.90;;;;;;6189496;23;20079;-87
2022/11/29 06:24:33;;;;;;;337.30;26.73;;;6.60;99.90;;;;;;6164401;23;20092;-89
2022/11/29 06:27:07;;;;;;;248.93;23.52;;;6.60;99.90;;;;;;6189647;23;20016;-87
2022/11/29 06:29:54;;;;;;;325.25;26.73;;;6.60;99.90;;;;;;6189280;23;20020;-88
2022/11/29 06:32:39;;;;;;;308.75;27.90;;;6.60;99.90;;;;;;6164239;23;20017;-87
2022/11/29 06:35:27;;;;;;;280.38;26.13;;;6.60;99.90;;;;;;6189197;23;20023;-87
2022/11/29 06:37:57;;;;;;;310.70;27.27;;;6.60;99.90;;;;;;6216031;23;20016;-86
2022/11/29 06:40:23;;;;;;;289.58;28.05;;;6.60;99.90;;;;;;6188988;23;20378;-87
2022/11/29 06:43:01;;;;;;;254.45;25.77;;;6.60;99.90;;;;;;6216615;23;20038;-91
2022/11/29 06:45:27;;;;;;;321.65;28.92;;;6.50;99.90;;;;;;6216566;23;20032;-90
2022/11/29 06:48:01;;;;;;;226.82;24.95;;;6.60;99.90;;;;;;6165628;23;20102;-88
2022/11/29 06:50:47;;;;;;;262.60;27.98;;;6.60;99.90;;;;;;6190670;23;20103;-89
2022/11/29 06:53:20;;;;;;;259.30;28.40;;;6.60;99.90;;;;;;6167303;23;20313;-89
2022/11/29 06:56:12;;;;;;;318.30;34.45;;;6.60;99.90;;;;;;6190300;23;20044;-88
2022/11/29 06:59:03;;;;;;;307.80;33.90;;;6.60;99.90;;;;;;6071965;23;20018;-89
2022/11/29 07:01:52;;;;;;;225.40;27.13;;;6.60;99.90;;;;;;6166329;23;20019;-88
2022/11/29 07:04:31;;;;;;;260.77;31.25;;;6.60;99.90;;;;;;6167067;23;20419;-88
2022/11/29 07:06:57;;;;;;;361.67;38.08;;;6.60;99.90;;;;;;6191863;23;20005;-88
2022/11/29 07:09:27;;;;;;;269.40;29.60;;;6.60;99.90;;;;;;6192572;23;20150;-87
2022/11/29 07:11:53;;;;;;;280.58;29.30;;;6.50;99.90;;;;;;6166774;23;20226;-89
2022/11/29 07:14:19;;;;;;;290.90;33.92;;;6.60;99.90;;;;;;6167067;23;20020;-88
2022/11/29 07:16:50;;;;;;;340.77;33.47;;;6.50;99.90;;;;;;6191322;23;20016;-88
2022/11/29 07:19:35;;;;;;;241.32;25.42;;;6.60;99.90;;;;;;6190939;23;20020;-89
2022/11/29 07:22:21;;;;;;;259.08;26.08;;;6.60;99.90;;;;;;6166415;23;20383;-88
2022/11/29 07:24:46;;;;;;;245.73;29.52;;;6.60;99.90;;;;;;6191772;23;20449;-89
2022/11/29 07:27:20;;;;;;;272.67;31.65;;;6.60;99.90;;;;;;6191665;23;20044;-89
2022/11/29 07:40:37;;;;;;;189.55;24.10;;;6.50;99.90;;;;;;6180854;23;20087;-89
2022/11/29 07:44:00;;;;;;;231.85;25.15;;;6.40;99.90;;;;;;6159828;23;20027;-88
2022/11/29 07:46:27;;;;;;;230.82;24.83;;;6.40;99.90;;;;;;6043007;23;20014;-88
2022/11/29 07:48:53;;;;;;;234.82;23.75;;;6.30;99.90;;;;;;6152087;23;20028;-87
2022/11/29 07:51:19;;;;;;;177.57;23.30;;;6.30;99.90;;;;;;6136591;23;20017;-88
2022/11/29 07:53:45;;;;;;;243.15;26.33;;;6.20;99.90;;;;;;6136970;23;20016;-87
2022/11/29 07:56:11;;;;;;;179.93;22.70;;;6.20;99.90;;;;;;6159573;23;20446;-85
2022/11/29 07:58:37;;;;;;;161.63;21.40;;;6.20;99.90;;;;;;6137127;23;20021;-86
2022/11/29 08:01:03;;;;;;;108.22;20.05;;;6.20;99.90;;;;;;6187059;23;20013;-88
2022/11/29 08:03:29;;;;;;;144.55;21.17;;;6.20;99.90;;;;;;6136240;23;20060;-88
2022/11/29 08:05:54;;;;;;;145.73;21.73;;;6.20;99.90;;;;;;6135843;23;20017;-88
2022/11/29 08:08:20;;;;;;;175.30;21.10;;;6.20;99.90;;;;;;6136634;23;20016;-87
2022/11/29 08:10:49;;;;;;;152.18;20.63;;;6.20;99.90;;;;;;6161660;23;20317;-85
2022/11/29 08:13:14;;;;;;;139.90;20.50;;;6.20;99.90;;;;;;6187242;23;20378;-86
2022/11/29 08:15:44;;;;;;;150.85;20.42;;;6.20;99.90;;;;;;6160044;23;20052;-87
2022/11/29 08:18:10;;;;;;;152.25;20.13;;;6.20;99.90;;;;;;6187205;23;20039;-87
2022/11/29 08:20:36;;;;;;;178.43;22.10;;;6.20;99.90;;;;;;6185731;23;20403;-87
2022/11/29 08:23:02;;;;;;;167.90;18.60;;;6.30;99.90;;;;;;6159663;23;20427;-87
2022/11/29 08:25:31;;;;;;;173.45;21.98;;;6.20;99.90;;;;;;6159572;23;20013;-87
2022/11/29 08:27:56;;;;;;;171.00;21.73;;;6.20;99.90;;;;;;6134454;23;20025;-87
2022/11/29 08:30:22;;;;;;;208.18;22.80;;;6.20;99.90;;;;;;6159248;23;20034;-85
2022/11/29 08:32:51;;;;;;;236.02;24.00;;;6.20;99.90;;;;;;6186114;23;20435;-85
2022/11/29 08:35:51;;;;;;;163.27;21.20;;;6.30;99.90;;;;;;6186674;23;20005;-90
2022/11/29 08:38:35;;;;;;;158.38;20.73;;;6.30;99.90;;;;;;6035389;23;20026;-88
2022/11/29 08:41:02;;;;;;;163.63;19.67;;;6.20;99.90;;;;;;6161598;23;20021;-85
2022/11/29 08:43:29;;;;;;;195.35;23.23;;;6.20;99.90;;;;;;6187060;23;20019;-85
2022/11/29 08:45:55;;;;;;;190.27;24.63;;;6.20;99.90;;;;;;6134711;23;20009;-84
2022/11/29 08:48:34;;;;;;;115.93;20.42;;;6.30;99.90;;;;;;6134924;23;20060;-88
2022/11/29 08:54:10;;;;;;;103.45;19.15;;;6.30;99.90;;;;;;6180255;23;20036;-87
2022/11/29 08:56:36;;;;;;;119.22;20.38;;;6.40;99.90;;;;;;6160390;23;20100;-85
2022/11/29 08:59:03;;;;;;;99.40;19.48;;;6.40;99.90;;;;;;6136241;23;20013;-87
2022/11/29 09:01:30;;;;;;;95.60;18.95;;;6.40;99.90;;;;;;6187183;23;20435;-89
2022/11/29 09:03:58;;;;;;;118.70;20.70;;;6.40;99.90;;;;;;6187008;23;20103;-90
2022/11/29 09:06:26;;;;;;;95.20;17.90;;;6.40;99.90;;;;;;6186672;23;20010;-88
2022/11/29 09:08:55;;;;;;;81.80;18.05;;;6.40;99.90;;;;;;6159653;23;20017;-90
2022/11/29 09:11:22;;;;;;;86.95;18.67;;;6.40;99.90;;;;;;6185800;23;20013;-88
2022/11/29 09:13:51;;;;;;;81.85;18.65;;;6.50;99.90;;;;;;6159983;23;20027;-86
2022/11/29 09:16:25;;;;;;;80.10;18.67;;;6.50;99.90;;;;;;6136947;23;20013;-90
2022/11/29 09:18:54;;;;;;;98.85;19.88;;;6.50;99.90;;;;;;6161719;23;20013;-89
2022/11/29 09:22:02;;;;;;;76.25;17.70;;;6.50;99.90;;;;;;6190442;23;20017;-92
2022/11/29 09:24:30;;;;;;;59.67;16.00;;;6.50;99.90;;;;;;6167150;23;20502;-89
2022/11/29 09:26:57;;;;;;;51.97;15.40;;;6.50;99.90;;;;;;6148005;23;20350;-86
2022/11/29 09:29:22;;;;;;;45.08;14.65;;;6.60;99.90;;;;;;6176563;23;20013;-83
2022/11/29 09:31:48;;;;;;;56.17;15.88;;;6.50;99.90;;;;;;6212365;23;20052;-85
2022/11/29 09:34:15;;;;;;;45.10;13.85;;;6.50;99.90;;;;;;6201778;23;20024;-88
2022/11/29 09:36:42;;;;;;;53.92;14.88;;;6.50;99.90;;;;;;6164775;23;20017;-90
2022/11/29 09:39:09;;;;;;;48.45;14.85;;;6.50;99.90;;;;;;6138305;23;20443;-89
2022/11/29 09:42:13;;;;;;;46.72;14.63;;;6.50;99.90;;;;;;6162993;23;20024;-88
2022/11/29 09:44:58;;;;;;;46.83;14.30;;;6.60;99.90;;;;;;6151359;23;20415;-89
2022/11/29 09:47:27;;;;;;;45.85;13.48;;;6.60;99.90;;;;;;6161193;23;20017;-88
2022/11/29 09:50:11;;;;;;;41.58;12.63;;;6.60;99.90;;;;;;6190406;23;20390;-87
2022/11/29 09:52:46;;;;;;;37.58;12.48;;;6.60;99.90;;;;;;6187887;23;20009;-87
2022/11/29 09:55:30;;;;;;;43.92;13.43;;;6.60;99.90;;;;;;6138081;23;20013;-85
2022/11/29 09:57:58;;;;;;;38.25;13.63;;;6.70;99.90;;;;;;6187481;23;20016;-89
2022/11/29 10:00:24;;;;;;;34.75;12.60;;;6.70;99.90;;;;;;6163436;23;20097;-89
2022/11/29 10:03:19;;;;;;;29.02;11.10;;;6.70;99.90;;;;;;6163085;23;20048;-91
2022/11/29 10:05:50;;;;;;;39.38;11.98;;;6.70;99.90;;;;;;6121338;23;20021;-90
2022/11/29 10:08:45;;;;;;;34.15;11.55;;;6.80;99.90;;;;;;6138583;23;20063;-88
2022/11/29 10:11:20;;;;;;;37.45;11.63;;;6.90;99.90;;;;;;6138477;23;20040;-91
2022/11/29 10:13:49;;;;;;;;;;;6.90;99.90;;;;;;6163550;23;20013;-88
2022/11/29 10:16:27;;;;;;;33.25;10.63;;;6.90;99.90;;;;;;6138766;23;19920;-88
2022/11/29 10:19:07;;;;;;;36.08;11.63;;;6.90;99.90;;;;;;6164611;23;20509;-89
2022/11/29 10:21:37;;;;;;;39.42;11.73;;;6.90;99.90;;;;;;6190624;23;20017;-88
2022/11/29 10:24:19;;;;;;;34.25;11.70;;;7.00;99.90;;;;;;6163504;23;20064;-89
2022/11/29 10:26:44;;;;;;;36.92;11.85;;;7.10;99.90;;;;;;6190188;23;20128;-89
2022/11/29 10:29:14;;;;;;;33.70;12.32;;;7.10;99.90;;;;;;6139927;23;20013;-88
2022/11/29 10:31:42;;;;;;;32.45;11.75;;;7.20;99.90;;;;;;6163499;23;20013;-87
2022/11/29 10:34:30;;;;;;;36.58;12.38;;;7.20;99.90;;;;;;6162568;23;20438;-85
2022/11/29 10:36:58;;;;;;;32.50;12.15;;;7.30;99.90;;;;;;6137869;23;20024;-88
2022/11/29 10:39:45;;;;;;;34.95;12.02;;;7.30;99.90;;;;;;6189346;23;20013;-87
2022/11/29 10:45:01;;;;;;;30.38;11.57;;;7.50;99.90;;;;;;6161923;23;20024;-85
2022/11/29 10:47:27;;;;;;;31.10;11.98;;;7.60;99.90;;;;;;6162742;23;20020;-89
2022/11/29 10:49:53;;;;;;;36.58;12.02;;;7.90;99.90;;;;;;6162139;23;20100;-89
2022/11/29 10:52:21;;;;;;;32.53;11.60;;;8.00;99.90;;;;;;6165438;23;20020;-87
2022/11/29 10:54:48;;;;;;;31.13;12.38;;;8.10;99.90;;;;;;6187378;23;20020;-87
2022/11/29 10:57:21;;;;;;;33.35;11.75;;;8.20;99.90;;;;;;6186628;23;20009;-85
2022/11/29 11:00:09;;;;;;;34.47;11.75;;;8.20;99.90;;;;;;6162926;23;20017;-86
2022/11/29 11:02:44;;;;;;;31.08;10.98;;;8.20;99.90;;;;;;6188469;23;20080;-90
2022/11/29 11:05:18;;;;;;;35.92;13.95;;;8.20;99.90;;;;;;6162327;23;20020;-87
2022/11/29 11:07:46;;;;;;;38.30;12.40;;;8.10;99.90;;;;;;6186901;23;20443;-86
2022/11/29 11:10:26;;;;;;;36.92;12.63;;;8.10;99.90;;;;;;6188403;23;20016;-86
2022/11/29 11:13:17;;;;;;;32.60;11.40;;;8.10;99.90;;;;;;6186143;23;20021;-87
2022/11/29 11:15:43;;;;;;;35.40;12.88;;;8.20;99.90;;;;;;6188279;23;20017;-88
2022/11/29 11:18:20;;;;;;;31.15;12.95;;;8.20;99.90;;;;;;6187116;23;20020;-89
2022/11/29 11:20:55;;;;;;;34.50;12.65;;;8.30;99.90;;;;;;6187721;23;20017;-86
2022/11/29 11:23:35;;;;;;;33.63;12.50;;;8.30;99.90;;;;;;6185895;23;20020;-86
2022/11/29 11:26:04;;;;;;;40.38;14.07;;;8.30;99.90;;;;;;6187377;23;20012;-88
2022/11/29 11:28:58;;;;;;;35.17;14.18;;;8.30;99.90;;;;;;6185714;23;20037;-87
2022/11/29 11:31:32;;;;;;;40.33;14.77;;;8.30;99.90;;;;;;6187705;23;20084;-89
2022/11/29 11:34:32;;;;;;;46.05;15.05;;;8.30;99.90;;;;;;6185986;23;20017;-87
2022/11/29 11:37:13;;;;;;;40.92;15.68;;;8.30;99.90;;;;;;6185635;23;20375;-86
2022/11/29 11:39:40;;;;;;;38.92;14.20;;;8.30;99.90;;;;;;6161356;23;20428;-86
2022/11/29 11:42:35;;;;;;;45.38;14.90;;;8.30;99.90;;;;;;6160594;23;20303;-87
2022/11/29 11:45:09;;;;;;;39.17;14.23;;;8.30;99.90;;;;;;6185406;23;20330;-83
2022/11/29 11:47:41;;;;;;;45.72;14.65;;;8.30;99.90;;;;;;6185267;23;20099;-83
2022/11/29 11:50:12;;;;;;;45.22;15.07;;;8.30;99.90;;;;;;6185138;23;20017;-83
2022/11/29 11:52:38;;;;;;;39.63;14.50;;;8.30;99.90;;;;;;6159911;23;20024;-83
2022/11/29 11:55:25;;;;;;;49.03;15.38;;;8.40;99.90;;;;;;6186074;23;20021;-87
2022/11/29 11:58:01;;;;;;;47.85;16.75;;;8.40;99.90;;;;;;6184427;23;20035;-82
2022/11/29 12:00:47;;;;;;;45.10;15.93;;;8.40;99.90;;;;;;6186834;23;20024;-83
2022/11/29 12:03:25;;;;;;;43.35;16.10;;;8.40;99.90;;;;;;6161696;23;20071;-89
2022/11/29 12:05:54;;;;;;;44.08;15.75;;;8.50;99.90;;;;;;6162016;23;20091;-89
2022/11/29 12:08:21;;;;;;;40.05;15.50;;;8.60;99.90;;;;;;6187074;23;20017;-87
2022/11/29 12:10:52;;;;;;;37.55;14.93;;;8.60;99.90;;;;;;6187080;23;20367;-84
2022/11/29 12:13:27;;;;;;;40.38;13.18;;;8.60;99.90;;;;;;6186555;23;20176;-84
2022/11/29 12:15:57;;;;;;;42.75;13.95;;;8.60;99.90;;;;;;6163270;23;20013;-83
2022/11/29 12:18:36;;;;;;;33.78;13.10;;;8.70;99.90;;;;;;6162431;23;20115;-84
2022/11/29 12:21:20;;;;;;;35.22;13.77;;;8.70;99.90;;;;;;6187661;23;20308;-83
2022/11/29 12:23:58;;;;;;;42.15;14.50;;;8.70;99.90;;;;;;6187309;23;20386;-86
2022/11/29 12:26:25;;;;;;;38.75;14.70;;;8.70;99.90;;;;;;6186659;23;20048;-88
2022/11/29 12:28:51;;;;;;;46.63;14.40;;;8.70;99.90;;;;;;6185210;23;20024;-86
2022/11/29 12:31:40;;;;;;;41.67;12.88;;;8.80;99.90;;;;;;6159853;23;20040;-83
2022/11/29 12:34:26;;;;;;;38.17;12.75;;;8.70;99.90;;;;;;6186285;23;20073;-86
2022/11/29 12:37:24;;;;;;;37.13;14.00;;;8.80;99.90;;;;;;6185905;23;20024;-87
2022/11/29 12:40:04;;;;;;;46.28;14.23;;;8.80;99.90;;;;;;6186407;23;20053;-86
2022/11/29 12:42:29;;;;;;;37.42;13.40;;;8.90;99.90;;;;;;6185754;23;20055;-84
2022/11/29 12:45:07;;;;;;;37.78;12.80;;;8.90;99.90;;;;;;6185838;23;20343;-86
2022/11/29 12:47:51;;;;;;;37.30;12.90;;;8.90;99.90;;;;;;6185990;23;20013;-86
2022/11/29 12:50:48;;;;;;;48.33;13.45;;;8.90;99.90;;;;;;6160950;23;20361;-86
2022/11/29 12:53:32;;;;;;;37.70;12.48;;;8.90;99.90;;;;;;6186313;23;20013;-86
2022/11/29 12:56:12;;;;;;;34.88;11.98;;;8.90;99.90;;;;;;6185966;23;20383;-83
2022/11/29 12:59:04;;;;;;;34.97;12.43;;;8.90;99.90;;;;;;6187725;23;20013;-87
2022/11/29 13:01:58;;;;;;;40.40;12.98;;;9.00;99.90;;;;;;6117655;23;20024;-85
2022/11/29 13:04:56;;;;;;;37.53;12.10;;;8.90;99.90;;;;;;6187389;23;20009;-86
2022/11/29 13:07:35;;;;;;;43.35;12.57;;;8.90;99.90;;;;;;6084957;23;20379;-83
2022/11/29 13:10:14;;;;;;;41.38;13.10;;;9.00;99.90;;;;;;6163567;23;20013;-88
2022/11/29 13:12:48;;;;;;;36.72;12.77;;;9.00;99.90;;;;;;6163817;23;20439;-88
2022/11/29 13:15:25;;;;;;;47.03;13.25;;;9.00;99.90;;;;;;6188218;23;20028;-87
2022/11/29 13:18:03;;;;;;;34.38;12.25;;;9.00;99.90;;;;;;6188287;23;20016;-90
2022/11/29 13:20:42;;;;;;;44.75;13.88;;;9.00;99.90;;;;;;6190050;23;20386;-87
2022/11/29 13:23:23;;;;;;;41.72;13.50;;;9.00;99.90;;;;;;6163197;23;20013;-89
2022/11/29 13:25:53;;;;;;;42.80;13.75;;;9.00;99.90;;;;;;6187844;23;20010;-87
2022/11/29 13:28:24;;;;;;;42.80;13.10;;;9.10;99.90;;;;;;6188005;23;20013;-87
2022/11/29 13:30:51;;;;;;;42.08;13.50;;;9.10;99.90;;;;;;6187903;23;20073;-87
2022/11/29 13:33:26;;;;;;;44.80;13.57;;;9.10;99.90;;;;;;6188196;23;20119;-88
2022/11/29 13:36:12;;;;;;;;;;;9.20;99.90;;;;;;6162421;23;20061;-89
2022/11/29 13:38:52;;;;;;;35.53;12.70;;;9.20;99.90;;;;;;6161055;23;19916;-88
2022/11/29 13:41:45;;;;;;;44.85;13.25;;;9.20;99.90;;;;;;6186767;23;20017;-87
2022/11/29 13:44:42;;;;;;;47.97;14.70;;;9.20;99.90;;;;;;6189123;23;20296;-88
2022/11/29 13:47:16;;;;;;;39.10;12.77;;;9.20;99.90;;;;;;6171484;23;20052;-85
2022/11/29 13:50:05;;;;;;;55.05;13.77;;;9.20;99.90;;;;;;6161672;23;20017;-86
2022/11/29 13:52:41;;;;;;;41.97;13.20;;;9.30;99.90;;;;;;6188088;23;20013;-88
2022/11/29 13:55:08;;;;;;;43.35;13.15;;;9.20;99.90;;;;;;6138079;23;20013;-89
2022/11/29 13:57:54;;;;;;;42.65;12.18;;;9.20;99.90;;;;;;6161349;23;20072;-87
2022/11/29 14:00:26;;;;;;;49.50;13.07;;;9.20;99.90;;;;;;6189462;23;20017;-87
2022/11/29 14:02:53;;;;;;;44.92;13.23;;;9.20;99.90;;;;;;6163014;23;20427;-86
2022/11/29 14:05:27;;;;;;;41.95;12.02;;;9.20;99.90;;;;;;6162664;23;20378;-88
2022/11/29 14:08:35;;;;;;;42.35;12.80;;;9.20;99.90;;;;;;6139775;23;20092;-87
2022/11/29 14:11:07;;;;;;;44.63;13.65;;;9.20;99.90;;;;;;6162279;23;20043;-87
2022/11/29 14:13:46;;;;;;;50.47;13.32;;;9.20;99.90;;;;;;6161566;23;20013;-88
2022/11/29 14:16:41;;;;;;;54.92;14.68;;;9.30;99.90;;;;;;6162715;23;20021;-86
2022/11/29 14:19:10;;;;;;;60.10;19.45;;;9.20;99.90;;;;;;6158778;23;20019;-87
2022/11/29 14:22:00;;;;;;;51.65;17.42;;;9.30;99.90;;;;;;6137451;23;20502;-87
2022/11/29 14:24:35;;;;;;;40.17;13.95;;;9.20;99.90;;;;;;6136466;23;20078;-84
2022/11/29 14:27:20;;;;;;;48.33;13.25;;;9.30;99.90;;;;;;6136374;23;20473;-84
2022/11/29 14:29:53;;;;;;;;;;;9.30;99.90;;;;;;6125523;23;20017;-87
2022/11/29 14:33:02;;;;;;;39.90;14.07;;;9.30;99.90;;;;;;6172104;23;19918;-87
2022/11/29 14:35:36;;;;;;;65.05;21.48;;;9.30;99.90;;;;;;6183035;23;20008;-86
2022/11/29 14:38:22;;;;;;;50.08;18.10;;;9.30;99.90;;;;;;6186617;23;20007;-87
2022/11/29 14:40:52;;;;;;;;;;;9.30;99.90;;;;;;6140453;23;20443;-88
2022/11/29 14:43:37;;;;;;;53.03;16.10;;;9.20;99.90;;;;;;6191452;23;20008;-89
2022/11/29 14:46:15;;;;;;;43.30;14.98;;;9.30;99.90;;;;;;6162119;23;20020;-88
2022/11/29 14:48:55;;;;;;;49.42;14.88;;;9.20;99.90;;;;;;6188498;23;20013;-88
2022/11/29 14:51:23;;;;;;;42.50;16.67;;;9.30;99.90;;;;;;6188512;23;20013;-90
2022/11/29 14:54:06;;;;;;;64.65;24.55;;;9.30;99.90;;;;;;6187725;23;20403;-88
2022/11/29 14:56:33;;;;;;;44.45;15.55;;;9.30;99.90;;;;;;6161859;23;20017;-86
2022/11/29 14:59:36;;;;;;;41.17;16.52;;;9.20;99.90;;;;;;6136890;23;20020;-86
2022/11/29 15:02:16;;;;;;;44.72;15.32;;;9.30;99.90;;;;;;6163438;23;20100;-87
2022/11/29 15:04:42;;;;;;;41.42;16.23;;;9.30;99.90;;;;;;6162676;23;20447;-87
2022/11/29 15:07:17;;;;;;;37.22;15.07;;;9.30;99.90;;;;;;6138930;23;20013;-86
2022/11/29 15:09:44;;;;;;;40.85;16.30;;;9.30;99.90;;;;;;6162718;23;20013;-87
2022/11/29 15:12:20;;;;;;;39.00;16.73;;;9.20;99.90;;;;;;6137730;23;20088;-86
2022/11/29 15:15:04;;;;;;;43.58;17.20;;;9.20;99.90;;;;;;6163120;23;20032;-89
2022/11/29 15:17:52;;;;;;;40.65;16.58;;;9.20;99.90;;;;;;6137875;23;20435;-86
2022/11/29 15:20:27;;;;;;;52.47;19.20;;;9.20;99.90;;;;;;6137808;23;20013;-89
2022/11/29 15:22:59;;;;;;;37.65;17.25;;;9.20;99.90;;;;;;6161528;23;20383;-89
2022/11/29 15:25:30;;;;;;;36.08;16.08;;;9.20;99.90;;;;;;6161167;23;20024;-88
2022/11/29 15:28:04;;;;;;;28.70;14.80;;;9.10;99.90;;;;;;6162272;23;20012;-89
2022/11/29 15:30:34;;;;;;;30.95;15.32;;;9.10;99.90;;;;;;6137728;23;20023;-89
2022/11/29 15:33:03;;;;;;;25.52;13.30;;;9.10;99.90;;;;;;6161166;23;20017;-89
2022/11/29 15:35:31;;;;;;;22.70;13.20;;;9.10;99.90;;;;;;6161473;23;20465;-89
2022/11/29 15:37:57;;;;;;;20.30;12.13;;;9.00;99.90;;;;;;6161454;23;20016;-87
2022/11/29 15:40:34;;;;;;;23.42;13.77;;;9.00;99.90;;;;;;6136537;23;20016;-87
2022/11/29 15:43:21;;;;;;;20.95;13.15;;;9.00;99.90;;;;;;6137577;23;20009;-88
2022/11/29 15:45:55;;;;;;;26.92;14.13;;;8.90;99.90;;;;;;6161422;23;20009;-90
2022/11/29 15:48:29;;;;;;;25.70;13.85;;;8.90;99.90;;;;;;6161486;23;20151;-89
2022/11/29 15:50:58;;;;;;;24.52;14.40;;;8.80;99.90;;;;;;6161359;23;20478;-89
2022/11/29 15:53:42;;;;;;;28.52;16.05;;;8.80;99.90;;;;;;6178094;23;20343;-88
2022/11/29 15:56:18;;;;;;;21.30;12.93;;;8.70;99.90;;;;;;6185815;23;20386;-88
2022/11/29 15:58:46;;;;;;;23.30;13.77;;;8.80;99.90;;;;;;6186061;23;20024;-88
2022/11/29 16:01:19;;;;;;;25.77;14.95;;;8.70;99.90;;;;;;6186445;23;20067;-88
2022/11/29 16:03:45;;;;;;;23.65;14.07;;;8.60;99.90;;;;;;6185733;23;20017;-88
2022/11/29 16:06:32;;;;;;;20.05;13.32;;;8.60;99.90;;;;;;6185919;23;20285;-89
2022/11/29 16:08:59;;;;;;;28.05;15.23;;;8.60;99.90;;;;;;6184933;23;20065;-86
2022/11/29 16:11:29;;;;;;;26.75;14.73;;;8.50;99.90;;;;;;6158848;23;20059;-86
2022/11/29 16:14:23;;;;;;;28.13;15.65;;;8.50;99.90;;;;;;6183795;23;20013;-86
2022/11/29 16:16:51;;;;;;;27.73;16.42;;;8.50;99.90;;;;;;6183126;23;20439;-85
2022/11/29 16:19:20;;;;;;;25.48;14.07;;;8.50;99.90;;;;;;6183408;23;20511;-88
2022/11/29 16:22:00;;;;;;;32.67;16.90;;;8.50;99.90;;;;;;6183322;23;20021;-87
2022/11/29 16:24:26;;;;;;;27.17;16.50;;;8.40;99.90;;;;;;6183678;23;20089;-86
2022/11/29 16:26:53;;;;;;;26.98;16.00;;;8.40;99.90;;;;;;6183326;23;20443;-86
2022/11/29 16:29:23;;;;;;;25.33;15.15;;;8.40;99.90;;;;;;6183352;23;20013;-86
2022/11/29 16:31:50;;;;;;;37.33;17.90;;;8.30;99.90;;;;;;6183485;23;20040;-85
2022/11/29 16:34:29;;;;;;;36.28;16.60;;;8.20;99.90;;;;;;6183302;23;20013;-86
2022/11/29 16:37:05;;;;;;;32.30;17.27;;;8.20;99.90;;;;;;6183236;23;20005;-87
2022/11/29 16:39:32;;;;;;;32.92;16.73;;;8.10;99.90;;;;;;6183567;23;20071;-86
2022/11/29 16:42:05;;;;;;;33.15;17.60;;;8.10;99.90;;;;;;6184780;23;20493;-84
2022/11/29 16:44:40;;;;;;;28.92;17.05;;;8.10;99.90;;;;;;6183616;23;20088;-85
2022/11/29 16:47:17;;;;;;;28.42;17.58;;;8.10;99.90;;;;;;6185288;23;20649;-85
2022/11/29 16:49:43;;;;;;;34.10;18.30;;;8.10;99.90;;;;;;6158447;23;20082;-85
2022/11/29 16:52:27;;;;;;;30.42;18.10;;;8.00;99.90;;;;;;6183131;23;20088;-85
2022/11/29 16:54:53;;;;;;;29.20;18.08;;;8.10;99.90;;;;;;6183405;23;20009;-87
2022/11/29 16:57:19;;;;;;;30.10;17.02;;;8.00;99.90;;;;;;6158274;23;20316;-86
2022/11/29 16:59:45;;;;;;;27.15;17.42;;;8.00;99.90;;;;;;6183185;23;20017;-85
2022/11/29 17:02:12;;;;;;;28.23;16.65;;;8.00;99.90;;;;;;6183763;23;20025;-87
2022/11/29 17:04:38;;;;;;;34.38;18.48;;;8.00;99.90;;;;;;6184669;23;20005;-86
2022/11/29 17:07:06;;;;;;;32.65;18.58;;;8.10;99.90;;;;;;6158652;23;20475;-87
2022/11/29 17:09:33;;;;;;;33.45;18.20;;;8.00;99.90;;;;;;6183171;23;20489;-86
2022/11/29 17:12:00;;;;;;;31.95;18.83;;;8.00;99.90;;;;;;6183088;23;20013;-84
2022/11/29 17:14:27;;;;;;;31.80;18.58;;;8.00;99.90;;;;;;6183062;23;20016;-85
2022/11/29 17:16:53;;;;;;;33.85;18.48;;;8.10;99.90;;;;;;6183027;23;20016;-82
2022/11/29 17:19:23;;;;;;;29.45;17.02;;;8.10;99.90;;;;;;6184592;23;20009;-84
2022/11/29 17:21:50;;;;;;;31.50;17.88;;;8.00;99.90;;;;;;6182922;23;20386;-83
2022/11/29 17:24:18;;;;;;;35.30;19.15;;;8.10;99.90;;;;;;6182856;23;20485;-85
2022/11/29 17:26:44;;;;;;;34.47;19.15;;;8.00;99.90;;;;;;6184569;23;20013;-84
2022/11/29 17:29:12;;;;;;;40.50;21.33;;;8.00;99.90;;;;;;6183136;23;20462;-86
2022/11/29 17:31:37;;;;;;;34.35;18.83;;;8.00;99.90;;;;;;6183564;23;20017;-84
2022/11/29 17:34:03;;;;;;;38.20;20.35;;;8.00;99.90;;;;;;6183164;23;20324;-85
2022/11/29 17:36:29;;;;;;;33.35;19.75;;;8.00;99.90;;;;;;6183252;23;20021;-83
2022/11/29 17:38:57;;;;;;;33.20;19.42;;;8.00;99.90;;;;;;6183285;23;20119;-85
2022/11/29 17:41:24;;;;;;;32.05;19.15;;;8.00;99.90;;;;;;6186205;23;20082;-85
2022/11/29 17:43:52;;;;;;;32.55;18.85;;;8.00;99.90;;;;;;6184180;23;20013;-84